Time;durP1;ratioP1;P1;durP2;ratioP2;P2;SDS_P1;SDS_P2;PMS_P1;PMS_P2;Temp;Humidity;BMP_temperature;BMP_pressure;BME280_temperature;BME280_humidity;BME280_pressure;Samples;Min_cycle;Max_cycle;Signal;HPM_P1;HPM_P2
2021/08/10 00:03:01;;;;;;;;;;;12.80;99.90;;;;;;8425506;28;19911;-64
2021/08/10 00:07:01;;;;;;;;;;;13.10;99.90;;;;;;8425787;28;19912;-64
2021/08/10 00:11:02;;;;;;;;;;;13.40;99.90;;;;;;8407014;28;20365;-64
2021/08/10 00:15:04;;;;;;;;;;;13.20;99.90;;;;;;8425704;28;20002;-64
2021/08/10 00:19:04;;;;;;;;;;;13.30;99.90;;;;;;8424865;28;19908;-64
2021/08/10 00:23:05;;;;;;;;;;;13.10;99.90;;;;;;8425006;28;20392;-64
2021/08/10 00:27:05;;;;;;;;;;;13.20;99.90;;;;;;8407221;28;19961;-64
2021/08/10 00:31:06;;;;;;;;;;;13.30;99.90;;;;;;8424882;28;19954;-64
2021/08/10 00:35:07;;;;;;;;;;;13.00;99.90;;;;;;8425336;28;20297;-64
2021/08/10 00:39:07;;;;;;;;;;;12.90;99.90;;;;;;8424703;28;19915;-64
2021/08/10 00:43:26;;;;;;;;;;;12.80;99.90;;;;;;8425208;28;20385;-64
2021/08/10 00:47:27;;;;;;;;;;;12.90;99.90;;;;;;8424923;28;19915;-64
2021/08/10 00:51:27;;;;;;;;;;;12.90;99.90;;;;;;8424680;28;19909;-64
2021/08/10 00:55:28;;;;;;;;;;;12.70;99.90;;;;;;8424895;28;19915;-64
2021/08/10 00:59:28;;;;;;;;;;;12.60;99.90;;;;;;8426453;28;19916;-64
2021/08/10 01:03:29;;;;;;;;;;;12.60;99.90;;;;;;8430843;28;20404;-64
2021/08/10 01:07:38;;;;;;;;;;;12.70;99.90;;;;;;8430740;28;19977;-64
2021/08/10 01:11:51;;;;;;;;;;;12.40;99.90;;;;;;8430779;28;19981;-64
2021/08/10 01:16:11;;;;;;;;;;;12.30;99.90;;;;;;8430826;28;20350;-64
2021/08/10 01:20:21;;;;;;;;;;;12.40;99.90;;;;;;8419616;28;19915;-64
2021/08/10 01:24:26;;;;;;;;;;;12.50;99.90;;;;;;8430953;28;19908;-64
2021/08/10 01:28:37;;;;;;;;;;;12.50;99.90;;;;;;8412058;28;19965;-63
2021/08/10 01:32:40;;;;;;;;;;;12.50;99.90;;;;;;8430523;28;19931;-64
2021/08/10 01:36:41;;;;;;;;;;;12.30;99.90;;;;;;8430312;28;19951;-64
2021/08/10 01:40:43;;;;;;;;;;;12.20;99.90;;;;;;8430098;28;19919;-64
2021/08/10 01:44:45;;;;;;;;;;;12.10;99.90;;;;;;8412096;28;19912;-64
2021/08/10 01:48:45;;;;;;;;;;;12.10;99.90;;;;;;8429694;28;19954;-64
2021/08/10 01:52:46;;;;;;;;;;;12.00;99.90;;;;;;8430027;28;19908;-64
2021/08/10 01:56:47;;;;;;;;;;;12.20;99.90;;;;;;8429459;28;19913;-64
2021/08/10 02:00:48;;;;;;;;;;;12.10;99.90;;;;;;8410867;28;19967;-64
2021/08/10 02:04:49;;;;;;;;;;;12.00;99.90;;;;;;8429509;28;19995;-64
2021/08/10 02:08:51;;;;;;;;;;;12.00;99.90;;;;;;8396341;28;19912;-64
2021/08/10 02:12:52;;;;;;;;;;;12.00;99.90;;;;;;8395529;28;19908;-64
2021/08/10 02:16:55;;;;;;;;;;;11.80;99.90;;;;;;8395328;28;19909;-63
2021/08/10 02:20:57;;;;;;;;;;;11.80;99.90;;;;;;8402857;28;19953;-64
2021/08/10 02:25:00;;;;;;;;;;;12.00;99.90;;;;;;8410793;28;20412;-63
2021/08/10 02:29:01;;;;;;;;;;;12.00;99.90;;;;;;8428173;28;19914;-64
2021/08/10 02:33:02;;;;;;;;;;;12.00;99.90;;;;;;8427824;28;19908;-64
2021/08/10 02:37:04;;;;;;;;;;;11.80;99.90;;;;;;8427866;28;19961;-64
2021/08/10 02:41:05;;;;;;;;;;;11.70;99.90;;;;;;8427743;28;20007;-63
2021/08/10 02:45:06;;;;;;;;;;;12.00;99.90;;;;;;8428090;28;20356;-63
2021/08/10 02:49:10;;;;;;;;;;;11.80;99.90;;;;;;8427475;28;19908;-64
2021/08/10 02:53:10;;;;;;;;;;;11.80;99.90;;;;;;8427737;28;19912;-64
2021/08/10 02:57:23;;;;;;;;;;;11.70;99.90;;;;;;8427282;28;20447;-64
2021/08/10 03:01:26;;;;;;;;;;;11.70;99.90;;;;;;8515806;22;19927;-91
2021/08/10 03:05:28;;;;;;;;;;;11.80;99.90;;;;;;8489568;28;19895;-96
2021/08/10 03:09:28;;;;;;;;;;;11.80;99.90;;;;;;8489105;28;19896;-94
2021/08/10 03:13:36;;;;;;;;;;;12.00;99.90;;;;;;8489304;28;19896;-95
2021/08/10 03:17:38;;;;;;;;;;;11.80;99.90;;;;;;8489025;28;19906;-95
2021/08/10 03:21:41;;;;;;;;;;;11.80;99.90;;;;;;8487891;28;19915;-94
2021/08/10 03:25:42;;;;;;;;;;;11.60;99.90;;;;;;8489138;28;19907;-94
2021/08/10 03:29:43;;;;;;;;;;;11.70;99.90;;;;;;8488509;28;19921;-96
2021/08/10 03:33:44;;;;;;;;;;;11.80;99.90;;;;;;8488750;28;20184;-94
2021/08/10 03:37:45;;;;;;;;;;;11.80;99.90;;;;;;8488412;28;19959;-95
2021/08/10 03:41:46;;;;;;;;;;;11.80;99.90;;;;;;8488591;28;19922;-96
2021/08/10 03:45:49;;;;;;;;;;;11.80;99.90;;;;;;8488561;28;19903;-94
2021/08/10 03:49:51;;;;;;;;;;;11.80;99.90;;;;;;8488300;28;19896;-95
2021/08/10 03:53:52;;;;;;;;;;;11.90;99.90;;;;;;8488402;28;19907;-95
2021/08/10 03:57:53;;;;;;;;;;;11.90;99.90;;;;;;8488150;28;19904;-95
2021/08/10 04:01:54;;;;;;;;;;;11.90;99.90;;;;;;8487997;28;19904;-96
2021/08/10 04:05:55;;;;;;;;;;;12.00;99.90;;;;;;8487865;28;19906;-95
2021/08/10 04:09:55;;;;;;;;;;;12.10;99.90;;;;;;8487605;28;19896;-93
2021/08/10 04:13:56;;;;;;;;;;;12.20;99.90;;;;;;8488005;28;19896;-94
2021/08/10 04:17:57;;;;;;;;;;;12.20;99.90;;;;;;8487670;28;19896;-96
2021/08/10 04:21:58;;;;;;;;;;;12.40;99.90;;;;;;8487612;28;19908;-94
2021/08/10 04:25:58;;;;;;;;;;;12.30;99.90;;;;;;8487443;28;19903;-94
2021/08/10 04:29:59;;;;;;;;;;;12.60;99.90;;;;;;8487406;28;19900;-95
2021/08/10 04:33:59;;;;;;;;;;;12.60;99.90;;;;;;8490413;28;19896;-94
2021/08/10 04:38:00;;;;;;;;;;;12.90;99.90;;;;;;8494223;28;19963;-95
2021/08/10 04:42:01;;;;;;;;;;;12.70;99.90;;;;;;8494059;28;19899;-96
2021/08/10 04:46:01;;;;;;;;;;;12.70;99.90;;;;;;8494190;28;20064;-94
2021/08/10 04:50:02;;;;;;;;;;;12.70;99.90;;;;;;8493258;28;19895;-94
2021/08/10 04:54:02;;;;;;;;;;;12.90;99.90;;;;;;8493764;28;19963;-92
2021/08/10 04:58:04;;;;;;;;;;;13.00;99.90;;;;;;8493087;28;19904;-92
2021/08/10 05:02:04;;;;;;;;;;;13.20;99.90;;;;;;8493515;28;19904;-94
2021/08/10 05:06:05;;;;;;;;;;;13.30;99.90;;;;;;8493386;28;19907;-95
2021/08/10 05:10:06;;;;;;;;;;;13.50;99.90;;;;;;8493139;28;19896;-93
2021/08/10 05:14:06;;;;;;;;;;;13.70;99.90;;;;;;8492394;28;19896;-91
2021/08/10 05:18:07;;;;;;;;;;;13.70;99.90;;;;;;8491846;28;19906;-93
2021/08/10 05:22:07;;;;;;;;;;;13.90;99.90;;;;;;8492821;28;19896;-94
2021/08/10 05:26:08;;;;;;;;;;;14.00;99.90;;;;;;8492343;28;19900;-93
2021/08/10 05:30:09;;;;;;;;;;;14.10;99.90;;;;;;8491915;28;19903;-94
2021/08/10 05:34:09;;;;;;;;;;;14.10;99.90;;;;;;8474162;28;19912;-91
2021/08/10 05:38:10;;;;;;;;;;;14.20;99.90;;;;;;8464161;28;19896;-92
2021/08/10 05:42:11;;;;;;;;;;;14.50;99.90;;;;;;8458924;28;19900;-92
2021/08/10 05:46:11;;;;;;;;;;;15.00;99.90;;;;;;8457659;28;19900;-94
2021/08/10 05:50:12;;;;;;;;;;;15.20;99.90;;;;;;8462790;28;19925;-92
2021/08/10 05:54:13;;;;;;;;;;;15.40;99.90;;;;;;8488361;28;19900;-90
2021/08/10 05:58:17;;;;;;;;;;;15.80;99.90;;;;;;8488527;28;19912;-92
2021/08/10 06:02:17;;;;;;;;;;;15.90;99.90;;;;;;8487455;28;19966;-92
2021/08/10 06:06:18;;;;;;;;;;;16.20;99.90;;;;;;8489437;28;19906;-95
2021/08/10 06:10:19;;;;;;;;;;;16.30;99.90;;;;;;8488307;28;19896;-94
2021/08/10 06:14:20;;;;;;;;;;;16.40;99.90;;;;;;8489032;28;19899;-92
2021/08/10 06:18:30;;;;;;;;;;;16.60;99.90;;;;;;8488201;27;19963;-94
2021/08/10 06:22:30;;;;;;;;;;;16.70;99.90;;;;;;8485025;27;19932;-93
2021/08/10 06:26:31;;;;;;;;;;;16.70;99.90;;;;;;8452649;22;19963;-65
2021/08/10 06:30:31;;;;;;;;;;;16.80;99.90;;;;;;8448791;28;20293;-65
2021/08/10 06:34:32;;;;;;;;;;;17.00;99.90;;;;;;8442617;28;20352;-66
2021/08/10 06:38:33;;;;;;;;;;;17.30;99.90;;;;;;8417167;28;19962;-65
2021/08/10 06:42:33;;;;;;;;;;;17.50;99.90;;;;;;8445110;28;19923;-65
2021/08/10 06:46:34;;;;;;;;;;;17.60;99.90;;;;;;8408116;28;19949;-65
2021/08/10 06:50:34;;;;;;;;;;;17.70;99.90;;;;;;8417896;28;19908;-65
2021/08/10 06:54:35;;;;;;;;;;;17.80;99.90;;;;;;8430327;28;20385;-65
2021/08/10 06:58:36;;;;;;;;;;;18.00;99.90;;;;;;8426844;28;19913;-65
2021/08/10 07:02:36;;;;;;;;;;;18.50;99.90;;;;;;8413692;28;19915;-65
2021/08/10 07:06:37;;;;;;;;;;;18.70;99.90;;;;;;8418537;28;19922;-64
2021/08/10 07:10:38;;;;;;;;;;;19.10;99.90;;;;;;8421579;28;19912;-64
2021/08/10 07:14:38;;;;;;;;;;;19.30;99.90;;;;;;8455805;28;19999;-65
2021/08/10 07:18:38;;;;;;;;;;;19.50;99.90;;;;;;8420880;28;19919;-65
2021/08/10 07:22:39;;;;;;;;;;;19.70;99.90;;;;;;8433264;28;20044;-64
2021/08/10 07:26:40;;;;;;;;;;;19.80;99.90;;;;;;8408775;28;19958;-65
2021/08/10 07:30:40;;;;;;;;;;;20.20;99.90;;;;;;8411259;28;19912;-65
2021/08/10 07:34:40;;;;;;;;;;;20.20;99.90;;;;;;8392820;28;20275;-66
2021/08/10 07:38:41;;;;;;;;;;;19.90;99.90;;;;;;8408039;28;19923;-65
2021/08/10 07:42:42;;;;;;;;;;;20.20;99.90;;;;;;8418402;28;19916;-65
2021/08/10 07:46:42;;;;;;;;;;;20.90;99.90;;;;;;8400653;28;19981;-65
2021/08/10 07:50:43;;;;;;;;;;;20.90;99.90;;;;;;8403981;28;19920;-65
2021/08/10 07:54:44;;;;;;;;;;;21.50;99.90;;;;;;8418166;28;19942;-65
2021/08/10 07:58:45;;;;;;;;;;;21.50;99.90;;;;;;8407913;28;19958;-65
2021/08/10 08:02:45;;;;;;;;;;;21.30;99.90;;;;;;8441148;28;20373;-65
2021/08/10 08:06:46;;;;;;;;;;;21.70;99.90;;;;;;8457974;28;19915;-65
2021/08/10 08:10:46;;;;;;;;;;;22.10;99.90;;;;;;8453858;28;19912;-65
2021/08/10 08:14:47;;;;;;;;;;;22.60;99.90;;;;;;8455954;28;20007;-65
2021/08/10 08:18:47;;;;;;;;;;;22.60;99.90;;;;;;8455832;28;19918;-65
2021/08/10 08:22:48;;;;;;;;;;;22.70;99.90;;;;;;8408061;28;19966;-65
2021/08/10 08:26:48;;;;;;;;;;;23.10;99.90;;;;;;8401670;28;19916;-65
2021/08/10 08:30:49;;;;;;;;;;;22.50;99.90;;;;;;8406697;28;19961;-65
2021/08/10 08:34:49;;;;;;;;;;;22.40;99.90;;;;;;8406948;28;19908;-65
2021/08/10 08:38:50;;;;;;;;;;;22.80;99.90;;;;;;8406344;28;19912;-65
2021/08/10 08:42:51;;;;;;;;;;;22.30;99.90;;;;;;8424592;28;19927;-65
2021/08/10 08:46:51;;;;;;;;;;;23.00;99.90;;;;;;8407257;28;19954;-65
2021/08/10 08:50:53;;;;;;;;;;;23.70;99.90;;;;;;8406624;28;19908;-66
2021/08/10 08:54:54;;;;;;;;;;;24.00;99.90;;;;;;8424697;28;19908;-66
2021/08/10 08:58:55;;;;;;;;;;;24.20;99.90;;;;;;8424186;28;19915;-65
2021/08/10 09:02:56;;;;;;;;;;;24.40;99.90;;;;;;8424509;28;19916;-65
2021/08/10 09:06:56;;;;;;;;;;;24.80;99.90;;;;;;8405490;28;20380;-66
2021/08/10 09:11:01;;;;;;;;;;;24.90;99.90;;;;;;8423265;28;19912;-65
2021/08/10 09:15:01;;;;;;;;;;;24.70;99.90;;;;;;8424667;28;20393;-66
2021/08/10 09:19:02;;;;;;;;;;;24.90;99.90;;;;;;8424445;28;20007;-65
2021/08/10 09:23:02;;;;;;;;;;;25.30;99.90;;;;;;8430783;28;19912;-65
2021/08/10 09:27:03;;;;;;;;;;;25.30;99.90;;;;;;8430709;28;19923;-65
2021/08/10 09:31:22;;;;;;;;;;;25.40;99.90;;;;;;8430510;28;20349;-65
2021/08/10 09:35:29;;;;;;;;;;;25.70;99.90;;;;;;8430674;28;19919;-65
2021/08/10 09:39:31;;;;;;;;;;;25.80;99.90;;;;;;8430015;28;19915;-65
2021/08/10 09:43:32;;;;;;;;;;;26.00;99.90;;;;;;8430307;28;19920;-66
2021/08/10 09:47:34;;;;;;;;;;;26.30;99.90;;;;;;8430132;28;19934;-65
2021/08/10 09:51:39;;;;;;;;;;;26.60;99.90;;;;;;8429914;28;19912;-66
2021/08/10 09:55:50;;;;;;;;;;;27.10;99.90;;;;;;8430044;28;19970;-66
2021/08/10 09:59:51;;;;;;;;;;;27.60;99.90;;;;;;8429380;28;19912;-65
2021/08/10 10:04:06;;;;;;;;;;;27.60;99.90;;;;;;8429282;28;20034;-65
2021/08/10 10:08:16;;;;;;;;;;;27.30;99.90;;;;;;8429258;28;19912;-65
2021/08/10 10:12:23;;;;;;;;;;;26.70;99.20;;;;;;8428891;28;19930;-65
2021/08/10 10:16:23;;;;;;;;;;;26.70;99.00;;;;;;8410866;28;19915;-65
2021/08/10 10:20:25;;;;;;;;;;;26.60;99.80;;;;;;8428399;28;19986;-66
2021/08/10 10:24:26;;;;;;;;;;;26.70;99.90;;;;;;8410459;28;19920;-66
2021/08/10 10:28:27;;;;;;;;;;;27.10;98.20;;;;;;8428353;28;19912;-65
2021/08/10 10:32:27;;;;;;;;;;;26.70;99.70;;;;;;8409985;28;20386;-66
2021/08/10 10:36:28;;;;;;;;;;;27.10;96.90;;;;;;8410370;28;19945;-66
2021/08/10 10:40:29;;;;;;;;;;;26.70;98.70;;;;;;8409824;28;19912;-65
2021/08/10 10:44:35;;;;;;;;;;;26.70;93.90;;;;;;8409800;28;19908;-65
2021/08/10 10:48:38;;;;;;;;;;;26.70;94.40;;;;;;8427859;28;20309;-65
2021/08/10 10:52:39;;;;;;;;;;;26.40;94.40;;;;;;8427972;28;19915;-65
2021/08/10 10:56:40;;;;;;;;;;;26.60;96.00;;;;;;8426380;28;19998;-65
2021/08/10 11:00:40;;;;;;;;;;;27.20;95.30;;;;;;8427960;28;20381;-65
2021/08/10 11:04:59;;;;;;;;;;;27.40;93.80;;;;;;8409090;28;19908;-65
2021/08/10 11:09:01;;;;;;;;;;;27.50;92.70;;;;;;8426856;28;19914;-65
2021/08/10 11:13:04;;;;;;;;;;;27.50;92.80;;;;;;8408939;28;19908;-67
2021/08/10 11:17:07;;;;;;;;;;;27.80;92.60;;;;;;8427092;28;19961;-65
2021/08/10 11:21:08;;;;;;;;;;;29.50;91.10;;;;;;8426722;28;19916;-65
2021/08/10 11:25:20;;;;;;;;;;;30.60;85.90;;;;;;8408746;28;20483;-66
2021/08/10 11:29:38;;;;;;;;;;;31.40;77.90;;;;;;8426278;28;20381;-66
2021/08/10 11:33:40;;;;;;;;;;;33.10;73.50;;;;;;8426546;28;20296;-66
2021/08/10 11:37:42;;;;;;;;;;;32.60;67.90;;;;;;8426478;28;19908;-66
2021/08/10 11:41:42;;;;;;;;;;;33.40;63.30;;;;;;8425965;28;20171;-66
2021/08/10 11:45:43;;;;;;;;;;;32.00;62.10;;;;;;8408099;28;19953;-66
2021/08/10 11:49:43;;;;;;;;;;;30.70;66.80;;;;;;8425989;28;19916;-65
2021/08/10 11:53:44;;;;;;;;;;;30.50;67.20;;;;;;8425878;28;19918;-66
2021/08/10 11:57:52;;;;;;;;;;;31.80;65.80;;;;;;8425975;28;19908;-66
2021/08/10 12:01:58;;;;;;;;;;;33.80;58.90;;;;;;8408214;28;19912;-65
2021/08/10 12:06:00;;;;;;;;;;;34.70;53.40;;;;;;8425371;28;21374;-66
2021/08/10 12:10:02;;;;;;;;;;;35.80;55.90;;;;;;8467568;22;19934;-63
2021/08/10 12:14:13;;;;;;;;;;;36.50;49.70;;;;;;8459426;28;19911;-64
2021/08/10 12:18:20;;;;;;;;;;;35.70;50.20;;;;;;8459379;28;19911;-64
2021/08/10 12:22:31;;;;;;;;;;;35.90;51.30;;;;;;8459306;28;19955;-64
2021/08/10 12:26:31;;;;;;;;;;;34.40;53.50;;;;;;8459512;28;19912;-63
2021/08/10 12:30:33;;;;;;;;;;;33.70;57.40;;;;;;8459267;28;19912;-63
2021/08/10 12:34:37;;;;;;;;;;;32.10;57.50;;;;;;8459383;28;19912;-63
2021/08/10 12:38:37;;;;;;;;;;;33.30;55.90;;;;;;8449715;28;19912;-63
2021/08/10 12:42:38;;;;;;;;;;;34.00;55.70;;;;;;8440688;28;19916;-64
2021/08/10 12:46:40;;;;;;;;;;;34.90;52.60;;;;;;8458698;28;19908;-64
2021/08/10 12:50:40;;;;;;;;;;;35.70;51.50;;;;;;8446451;28;19912;-63
2021/08/10 12:54:47;;;;;;;;;;;36.60;48.90;;;;;;8460888;28;20433;-64
2021/08/10 12:58:51;;;;;;;;;;;36.80;48.20;;;;;;8454826;28;19924;-63
2021/08/10 13:02:52;;;;;;;;;;;37.00;45.80;;;;;;8465611;28;19970;-63
2021/08/10 13:06:52;;;;;;;;;;;38.10;45.50;;;;;;8438794;28;20385;-64
2021/08/10 13:10:53;;;;;;;;;;;38.20;44.30;;;;;;8430823;28;19920;-64
2021/08/10 13:15:12;;;;;;;;;;;38.10;45.20;;;;;;8428104;28;20117;-64
2021/08/10 13:19:16;;;;;;;;;;;37.90;44.50;;;;;;8428046;28;19921;-64
2021/08/10 13:23:17;;;;;;;;;;;37.60;44.70;;;;;;8438578;28;19912;-64
2021/08/10 13:27:25;;;;;;;;;;;36.00;47.30;;;;;;8464487;28;20127;-64
2021/08/10 13:31:26;;;;;;;;;;;36.90;46.20;;;;;;8465094;28;19915;-63
2021/08/10 13:35:27;;;;;;;;;;;37.00;46.60;;;;;;8446005;28;20296;-64
2021/08/10 13:39:27;;;;;;;;;;;35.40;46.60;;;;;;8464172;28;19915;-64
2021/08/10 13:43:27;;;;;;;;;;;35.60;47.30;;;;;;8463938;28;19918;-64
2021/08/10 13:47:28;;;;;;;;;;;35.40;47.90;;;;;;8463404;28;20253;-63
2021/08/10 13:51:29;;;;;;;;;;;34.50;47.70;;;;;;8463464;28;20386;-63
2021/08/10 13:55:29;;;;;;;;;;;32.80;50.30;;;;;;8463858;28;19953;-63
2021/08/10 13:59:29;;;;;;;;;;;31.70;52.70;;;;;;8463030;28;19969;-63
2021/08/10 14:03:33;;;;;;;;;;;31.30;54.00;;;;;;8463223;28;19919;-64
2021/08/10 14:07:33;;;;;;;;;;;31.20;55.40;;;;;;8460906;28;19916;-64
2021/08/10 14:11:34;;;;;;;;;;;31.70;52.50;;;;;;8440212;27;20278;-63
2021/08/10 14:15:34;;;;;;;;;;;33.40;52.00;;;;;;8416388;28;20362;-64
2021/08/10 14:19:35;;;;;;;;;;;36.70;47.00;;;;;;8426415;28;20011;-64
2021/08/10 14:23:35;;;;;;;;;;;38.60;43.20;;;;;;8446807;28;20366;-64
2021/08/10 14:27:36;;;;;;;;;;;40.50;42.50;;;;;;8444599;28;19912;-64
2021/08/10 14:31:36;;;;;;;;;;;41.30;39.90;;;;;;8444665;28;19908;-64
2021/08/10 14:35:37;;;;;;;;;;;39.50;40.30;;;;;;8444455;28;19915;-64
2021/08/10 14:39:38;;;;;;;;;;;37.20;44.70;;;;;;8430764;28;19915;-63
2021/08/10 14:43:38;;;;;;;;;;;36.90;44.30;;;;;;8441663;28;20436;-64
2021/08/10 14:47:39;;;;;;;;;;;38.80;41.30;;;;;;8446307;28;19908;-64
2021/08/10 14:51:39;;;;;;;;;;;39.20;41.30;;;;;;8448746;28;20014;-64
2021/08/10 14:55:40;;;;;;;;;;;39.90;39.60;;;;;;8440165;28;20361;-64
2021/08/10 14:59:40;;;;;;;;;;;39.20;39.30;;;;;;8461410;28;19912;-64
2021/08/10 15:03:41;;;;;;;;;;;37.10;42.60;;;;;;8448579;28;19918;-64
2021/08/10 15:07:41;;;;;;;;;;;34.60;45.80;;;;;;8458561;28;19916;-64
2021/08/10 15:11:41;;;;;;;;;;;33.70;51.60;;;;;;8450679;28;19959;-64
2021/08/10 15:15:43;;;;;;;;;;;34.80;46.70;;;;;;8440429;28;19915;-64
2021/08/10 15:19:43;;;;;;;;;;;33.50;47.20;;;;;;8441777;28;19948;-64
2021/08/10 15:23:44;;;;;;;;;;;32.30;50.60;;;;;;8440293;28;19916;-63
2021/08/10 15:27:44;;;;;;;;;;;31.80;51.80;;;;;;8442085;28;19912;-64
2021/08/10 15:31:45;;;;;;;;;;;32.60;48.80;;;;;;8459770;28;19982;-64
2021/08/10 15:35:47;;;;;;;;;;;32.40;49.60;;;;;;8452611;28;19935;-64
2021/08/10 15:39:47;;;;;;;;;;;33.60;48.30;;;;;;8442017;28;19908;-64
2021/08/10 15:43:48;;;;;;;;;;;34.20;47.90;;;;;;8456196;28;19916;-64
2021/08/10 15:47:50;;;;;;;;;;;34.80;46.90;;;;;;8459528;28;19918;-64
2021/08/10 15:51:50;;;;;;;;;;;36.00;46.20;;;;;;8432317;28;19912;-64
2021/08/10 15:55:51;;;;;;;;;;;35.70;44.80;;;;;;8450622;28;20003;-63
2021/08/10 15:59:51;;;;;;;;;;;34.60;48.10;;;;;;8440911;28;19916;-64
2021/08/10 16:03:52;;;;;;;;;;;36.30;46.10;;;;;;8454228;28;20289;-64
2021/08/10 16:07:52;;;;;;;;;;;37.10;44.70;;;;;;8458201;28;19920;-64
2021/08/10 16:11:58;;;;;;;;;;;38.00;43.10;;;;;;8458027;28;19919;-64
2021/08/10 16:15:58;;;;;;;;;;;36.90;44.40;;;;;;8458285;28;19912;-64
2021/08/10 16:19:59;;;;;;;;;;;36.50;45.70;;;;;;8457453;28;19911;-63
2021/08/10 16:23:59;;;;;;;;;;;36.60;46.20;;;;;;8443935;28;19928;-64
2021/08/10 16:28:00;;;;;;;;;;;37.60;44.30;;;;;;8457538;28;20293;-64
2021/08/10 16:32:01;;;;;;;;;;;37.60;44.00;;;;;;8443156;28;19922;-64
2021/08/10 16:36:04;;;;;;;;;;;37.20;45.60;;;;;;8451036;28;19912;-64
2021/08/10 16:40:05;;;;;;;;;;;38.10;43.60;;;;;;8465458;28;20449;-64
2021/08/10 16:44:05;;;;;;;;;;;38.50;43.60;;;;;;8453268;28;19916;-64
2021/08/10 16:48:06;;;;;;;;;;;39.10;43.30;;;;;;8462347;28;19907;-64
2021/08/10 16:52:07;;;;;;;;;;;39.10;43.20;;;;;;8464242;28;19955;-64
2021/08/10 16:56:07;;;;;;;;;;;38.60;44.70;;;;;;8453789;28;19943;-64
2021/08/10 17:00:08;;;;;;;;;;;39.00;44.90;;;;;;8447711;28;19974;-64
2021/08/10 17:04:09;;;;;;;;;;;39.60;41.80;;;;;;8439865;28;19919;-62
2021/08/10 17:08:09;;;;;;;;;;;38.60;42.20;;;;;;8434053;28;19935;-62
2021/08/10 17:12:10;;;;;;;;;;;38.60;43.40;;;;;;8462400;28;20014;-62
2021/08/10 17:16:10;;;;;;;;;;;39.30;43.00;;;;;;8459656;28;19981;-62
2021/08/10 17:20:11;;;;;;;;;;;38.90;42.50;;;;;;8453582;28;19919;-62
2021/08/10 17:24:12;;;;;;;;;;;38.20;44.10;;;;;;8457811;28;19916;-62
2021/08/10 17:28:12;;;;;;;;;;;37.60;44.30;;;;;;8455892;28;19915;-62
2021/08/10 17:32:13;;;;;;;;;;;36.10;46.90;;;;;;8458559;28;19931;-61
2021/08/10 17:36:13;;;;;;;;;;;33.60;51.10;;;;;;8444302;28;19988;-61
2021/08/10 17:40:14;;;;;;;;;;;31.00;55.30;;;;;;8456025;28;19916;-64
2021/08/10 17:44:15;;;;;;;;;;;28.90;59.70;;;;;;8457076;28;19915;-63
2021/08/10 17:48:15;;;;;;;;;;;27.70;64.50;;;;;;8450930;28;19918;-64
2021/08/10 17:52:16;;;;;;;;;;;27.10;69.00;;;;;;8440550;28;19937;-63
2021/08/10 17:56:17;;;;;;;;;;;26.50;71.60;;;;;;8447312;28;19920;-64
2021/08/10 18:00:18;;;;;;;;;;;26.10;73.60;;;;;;8443648;28;19919;-63
2021/08/10 18:04:18;;;;;;;;;;;25.80;77.70;;;;;;8443481;28;19972;-64
2021/08/10 18:08:19;;;;;;;;;;;25.20;80.70;;;;;;8445278;28;20504;-63
2021/08/10 18:12:19;;;;;;;;;;;24.70;84.50;;;;;;8436558;28;19916;-63
2021/08/10 18:16:20;;;;;;;;;;;24.40;86.50;;;;;;8454641;28;19976;-64
2021/08/10 18:20:20;;;;;;;;;;;24.10;91.30;;;;;;8440123;28;19919;-64
2021/08/10 18:24:21;;;;;;;;;;;23.80;91.90;;;;;;8460429;28;19908;-64
2021/08/10 18:28:22;;;;;;;;;;;23.50;92.40;;;;;;8448819;28;19923;-63
2021/08/10 18:32:22;;;;;;;;;;;23.10;95.20;;;;;;8452794;28;19991;-63
2021/08/10 18:36:23;;;;;;;;;;;22.70;95.60;;;;;;8445629;28;19951;-63
2021/08/10 18:40:23;;;;;;;;;;;22.40;97.40;;;;;;8443309;28;20377;-63
2021/08/10 18:44:24;;;;;;;;;;;22.20;99.40;;;;;;8416306;28;19915;-63
2021/08/10 18:48:25;;;;;;;;;;;21.90;99.90;;;;;;8435418;28;19919;-63
2021/08/10 18:52:25;;;;;;;;;;;21.90;99.90;;;;;;8452755;28;20394;-63
2021/08/10 18:56:26;;;;;;;;;;;21.90;99.90;;;;;;8473723;22;19937;-93
2021/08/10 19:00:27;;;;;;;;;;;21.60;99.90;;;;;;8472353;28;19946;-92
2021/08/10 19:04:27;;;;;;;;;;;21.30;99.90;;;;;;8470308;28;19916;-95
2021/08/10 19:08:28;;;;;;;;;;;21.00;99.90;;;;;;8463251;28;19919;-96
2021/08/10 19:12:29;;;;;;;;;;;20.90;99.90;;;;;;8465627;28;19959;-94
2021/08/10 19:16:29;;;;;;;;;;;20.70;99.90;;;;;;8466521;28;19907;-93
2021/08/10 19:20:30;;;;;;;;;;;20.60;99.90;;;;;;8470838;28;19993;-93
2021/08/10 19:24:30;;;;;;;;;;;20.50;99.90;;;;;;8471211;28;19941;-93
2021/08/10 19:28:31;;;;;;;;;;;20.50;99.90;;;;;;8451903;28;19919;-93
2021/08/10 19:32:31;;;;;;;;;;;20.30;99.90;;;;;;8466757;28;19900;-92
2021/08/10 19:36:32;;;;;;;;;;;20.10;99.90;;;;;;8467014;28;19900;-93
2021/08/10 19:40:34;;;;;;;;;;;20.20;99.90;;;;;;8469957;28;19965;-93
2021/08/10 19:44:35;;;;;;;;;;;20.10;99.90;;;;;;8468113;28;19926;-93
2021/08/10 19:48:35;;;;;;;;;;;20.00;99.90;;;;;;8469212;28;19900;-94
2021/08/10 19:52:36;;;;;;;;;;;20.10;99.90;;;;;;8470418;28;19912;-92
2021/08/10 19:56:38;;;;;;;;;;;19.80;99.90;;;;;;8466417;28;19904;-92
2021/08/10 20:00:38;;;;;;;;;;;19.40;99.90;;;;;;8469669;28;19908;-93
2021/08/10 20:04:39;;;;;;;;;;;19.50;99.90;;;;;;8461564;28;19912;-92
2021/08/10 20:08:39;;;;;;;;;;;19.20;99.90;;;;;;8457851;28;19915;-93
2021/08/10 20:12:40;;;;;;;;;;;19.20;99.90;;;;;;8454027;28;19900;-93
2021/08/10 20:16:40;;;;;;;;;;;19.10;99.90;;;;;;8459220;28;19904;-93
2021/08/10 20:20:41;;;;;;;;;;;19.30;99.90;;;;;;8458280;28;19904;-92
2021/08/10 20:24:41;;;;;;;;;;;19.10;99.90;;;;;;8450611;28;19920;-91
2021/08/10 20:28:42;;;;;;;;;;;18.70;99.90;;;;;;8449235;28;20192;-93
2021/08/10 20:32:42;;;;;;;;;;;18.80;99.90;;;;;;8451632;28;20366;-93
2021/08/10 20:36:44;;;;;;;;;;;18.70;99.90;;;;;;8459211;28;19911;-92
2021/08/10 20:40:45;;;;;;;;;;;18.50;99.90;;;;;;8466267;28;19908;-92
2021/08/10 20:44:46;;;;;;;;;;;18.30;99.90;;;;;;8461960;28;19904;-92
2021/08/10 20:48:46;;;;;;;;;;;18.20;99.90;;;;;;8456446;28;19948;-93
2021/08/10 20:52:47;;;;;;;;;;;18.10;99.90;;;;;;8451321;27;19913;-91
2021/08/10 20:56:47;;;;;;;;;;;18.00;99.90;;;;;;8449015;28;19908;-92
2021/08/10 21:00:48;;;;;;;;;;;18.30;99.90;;;;;;8450581;28;19983;-92
2021/08/10 21:04:48;;;;;;;;;;;18.10;99.90;;;;;;8450323;28;19904;-92
2021/08/10 21:08:49;;;;;;;;;;;17.80;99.90;;;;;;8452310;28;19986;-93
2021/08/10 21:12:49;;;;;;;;;;;17.60;99.90;;;;;;8452173;28;19926;-91
2021/08/10 21:16:51;;;;;;;;;;;17.50;99.90;;;;;;8456038;28;19928;-91
2021/08/10 21:20:52;;;;;;;;;;;17.60;99.90;;;;;;8456048;28;19955;-91
2021/08/10 21:24:52;;;;;;;;;;;17.50;99.90;;;;;;8474864;28;19964;-91
2021/08/10 21:28:53;;;;;;;;;;;17.40;99.90;;;;;;8472237;28;19904;-92
2021/08/10 21:32:53;;;;;;;;;;;17.20;99.90;;;;;;8471872;28;19912;-91
2021/08/10 21:36:54;;;;;;;;;;;17.00;99.90;;;;;;8472200;28;19921;-91
2021/08/10 21:40:54;;;;;;;;;;;16.90;99.90;;;;;;8471309;28;20031;-92
2021/08/10 21:44:55;;;;;;;;;;;16.90;99.90;;;;;;8471677;28;19900;-91
2021/08/10 21:48:55;;;;;;;;;;;16.80;99.90;;;;;;8466710;28;19934;-93
2021/08/10 21:52:56;;;;;;;;;;;16.70;99.90;;;;;;8457123;27;19930;-92
2021/08/10 21:56:58;;;;;;;;;;;16.70;99.90;;;;;;8438481;28;19935;-92
2021/08/10 22:00:59;;;;;;;;;;;17.00;99.90;;;;;;8438950;28;19908;-93
2021/08/10 22:04:59;;;;;;;;;;;16.90;99.90;;;;;;8439097;28;19900;-91
2021/08/10 22:09:00;;;;;;;;;;;16.90;99.90;;;;;;8445198;28;19935;-91
2021/08/10 22:13:00;;;;;;;;;;;17.10;99.90;;;;;;8466232;28;19930;-92
2021/08/10 22:17:01;;;;;;;;;;;17.10;99.90;;;;;;8441847;28;19967;-91
2021/08/10 22:21:01;;;;;;;;;;;17.10;99.90;;;;;;8447473;27;19908;-91
2021/08/10 22:25:02;;;;;;;;;;;16.90;99.90;;;;;;8468220;28;19904;-93
2021/08/10 22:29:03;;;;;;;;;;;16.90;99.90;;;;;;8471179;28;19900;-92
2021/08/10 22:33:04;;;;;;;;;;;16.70;99.90;;;;;;8472020;28;19908;-91
2021/08/10 22:37:04;;;;;;;;;;;17.00;99.90;;;;;;8471816;28;19901;-92
2021/08/10 22:41:10;;;;;;;;;;;17.00;99.90;;;;;;8471099;27;19908;-92
2021/08/10 22:45:10;;;;;;;;;;;17.00;99.90;;;;;;8471272;27;19924;-93
2021/08/10 22:49:11;;;;;;;;;;;17.00;99.90;;;;;;8471259;28;19908;-92
2021/08/10 22:53:11;;;;;;;;;;;16.80;99.90;;;;;;8470667;27;19916;-92
2021/08/10 22:57:12;;;;;;;;;;;16.50;99.90;;;;;;8470860;27;19934;-93
2021/08/10 23:01:12;;;;;;;;;;;16.30;99.90;;;;;;8470567;27;19908;-91
2021/08/10 23:05:13;;;;;;;;;;;16.20;99.90;;;;;;8470932;27;19907;-93
2021/08/10 23:09:13;;;;;;;;;;;16.40;99.90;;;;;;8470332;27;19915;-92
2021/08/10 23:13:14;;;;;;;;;;;16.50;99.90;;;;;;8470486;27;19900;-91
2021/08/10 23:17:14;;;;;;;;;;;16.50;99.90;;;;;;8470221;27;19907;-92
2021/08/10 23:21:15;;;;;;;;;;;16.50;99.90;;;;;;8470094;27;19908;-93
2021/08/10 23:25:16;;;;;;;;;;;16.70;99.90;;;;;;8470028;28;19911;-92